Time;durP1;ratioP1;P1;durP2;ratioP2;P2;SDS_P1;SDS_P2;PMS_P1;PMS_P2;Temp;Humidity;BMP_temperature;BMP_pressure;BME280_temperature;BME280_humidity;BME280_pressure;Samples;Min_cycle;Max_cycle;Signal;HPM_P1;HPM_P2
2021/10/15 00:02:09;;;;;;;36.17;22.40;;;;;;;9.05;74.05;99192.27;2147230;82;20934;-81
2021/10/15 00:05:10;;;;;;;33.27;21.37;;;;;;;8.93;74.44;99190.27;2147046;83;20970;-81
2021/10/15 00:08:10;;;;;;;33.87;22.07;;;;;;;8.86;74.92;99188.36;2147074;83;20986;-81
2021/10/15 00:11:11;;;;;;;34.47;20.93;;;;;;;8.80;75.18;99186.48;2147129;82;21033;-80
2021/10/15 00:14:11;;;;;;;35.97;21.47;;;;;;;8.82;75.19;99186.52;2147398;82;20934;-81
2021/10/15 00:17:12;;;;;;;30.60;21.70;;;;;;;8.80;75.37;99179.98;2147277;82;21151;-81
2021/10/15 00:20:12;;;;;;;34.33;21.90;;;;;;;8.80;75.52;99176.07;2159377;82;21356;-81
2021/10/15 00:23:13;;;;;;;30.97;20.90;;;;;;;8.79;75.57;99180.82;2181812;82;20929;-80
2021/10/15 00:26:14;;;;;;;30.77;20.30;;;;;;;8.78;75.76;99172.55;2181970;82;20953;-81
2021/10/15 00:29:14;;;;;;;37.57;22.00;;;;;;;8.79;75.66;99174.31;2181887;82;20965;-82
2021/10/15 00:32:15;;;;;;;30.87;20.57;;;;;;;8.78;75.68;99172.98;2181702;82;20937;-81
2021/10/15 00:35:15;;;;;;;31.47;21.13;;;;;;;8.80;75.49;99175.19;2181806;82;20906;-80
2021/10/15 00:38:16;;;;;;;31.67;19.93;;;;;;;8.83;75.58;99167.03;2181926;82;20934;-80
2021/10/15 00:41:16;;;;;;;29.93;19.70;;;;;;;8.84;75.72;99163.59;2181701;82;21009;-81
2021/10/15 00:44:17;;;;;;;27.30;18.87;;;;;;;8.84;75.46;99162.70;2181888;82;21432;-81
2021/10/15 00:47:17;;;;;;;31.57;18.83;;;;;;;8.85;75.69;99156.23;2181964;82;20972;-80
2021/10/15 00:50:18;;;;;;;32.77;19.70;;;;;;;8.86;75.72;99154.52;2181502;82;20941;-81
2021/10/15 00:53:19;;;;;;;27.27;17.80;;;;;;;8.87;75.51;99151.95;2181827;82;20941;-81
2021/10/15 00:56:19;;;;;;;33.53;18.80;;;;;;;8.85;75.87;99149.73;2181978;82;20913;-81
2021/10/15 00:59:20;;;;;;;28.83;17.70;;;;;;;8.83;75.50;99135.80;2181860;82;20969;-81
2021/10/15 01:02:20;;;;;;;28.73;17.63;;;;;;;8.85;75.66;99136.72;2181836;82;20964;-81
2021/10/15 01:05:21;;;;;;;27.70;19.10;;;;;;;8.88;75.65;99134.60;2181869;82;20980;-82
2021/10/15 01:08:21;;;;;;;24.53;17.77;;;;;;;8.87;75.70;99128.52;2181817;82;20954;-81
2021/10/15 01:11:22;;;;;;;27.73;18.47;;;;;;;8.87;75.74;99131.13;2181616;82;21008;-81
2021/10/15 01:14:22;;;;;;;23.37;16.57;;;;;;;8.84;75.73;99132.35;2181706;82;20937;-81
2021/10/15 01:17:23;;;;;;;25.87;17.43;;;;;;;8.78;75.84;99125.70;2181689;82;20989;-82
2021/10/15 01:20:23;;;;;;;31.53;18.57;;;;;;;8.78;75.85;99121.80;2181648;82;21019;-81
2021/10/15 01:23:23;;;;;;;29.43;18.20;;;;;;;8.78;75.99;99123.10;2181676;82;20898;-82
2021/10/15 01:26:24;;;;;;;30.50;17.10;;;;;;;8.79;75.93;99120.95;2181616;82;20925;-82
2021/10/15 01:29:24;;;;;;;25.20;16.10;;;;;;;8.82;76.12;99113.22;2181778;82;21364;-82
2021/10/15 01:32:25;;;;;;;22.00;16.63;;;;;;;8.84;76.26;99114.12;2181681;82;20985;-81
2021/10/15 01:35:25;;;;;;;23.83;16.77;;;;;;;8.85;76.16;99114.59;2181476;82;20949;-82
2021/10/15 01:38:26;;;;;;;24.87;16.97;;;;;;;8.87;76.12;99111.59;2181764;82;20972;-82
2021/10/15 01:41:27;;;;;;;21.80;15.97;;;;;;;8.90;76.10;99112.97;2181669;82;20996;-82
2021/10/15 01:44:27;;;;;;;23.90;15.53;;;;;;;8.90;76.10;99109.06;2101088;85;20957;-82
2021/10/15 01:47:28;;;;;;;22.87;15.57;;;;;;;8.90;76.26;99102.55;2130970;84;20914;-81
2021/10/15 01:50:28;;;;;;;16.90;13.37;;;;;;;8.89;76.40;99105.12;2101388;85;20946;-81
2021/10/15 01:53:29;;;;;;;21.53;15.73;;;;;;;8.91;76.58;99100.83;2130877;84;20978;-81
2021/10/15 01:56:29;;;;;;;19.77;14.10;;;;;;;8.89;76.38;99096.02;2101331;85;20972;-81
2021/10/15 01:59:30;;;;;;;22.83;15.07;;;;;;;8.91;76.67;99106.03;2130748;84;20945;-81
2021/10/15 02:02:30;;;;;;;23.97;15.80;;;;;;;8.92;76.41;99109.98;2100773;85;20984;-80
2021/10/15 02:05:31;;;;;;;19.60;15.33;;;;;;;8.96;76.48;99107.44;2130706;84;20997;-82
2021/10/15 02:08:31;;;;;;;19.13;15.47;;;;;;;8.97;76.42;99108.78;2101148;85;20945;-81
2021/10/15 02:11:32;;;;;;;21.47;16.03;;;;;;;8.99;76.51;99103.61;2130500;84;20989;-80
2021/10/15 02:14:32;;;;;;;23.73;16.60;;;;;;;9.01;76.55;99103.22;2101204;85;20957;-81
2021/10/15 02:17:33;;;;;;;18.40;15.13;;;;;;;9.01;76.64;99096.28;2130817;84;20977;-81
2021/10/15 02:20:33;;;;;;;34.90;16.03;;;;;;;9.00;76.81;99094.95;2086760;83;21069;-80
2021/10/15 02:23:34;;;;;;;23.70;16.33;;;;;;;9.00;76.77;99093.64;2147315;82;21032;-81
2021/10/15 02:26:34;;;;;;;23.83;16.23;;;;;;;9.00;76.81;99097.12;2147212;82;20922;-77
2021/10/15 02:29:35;;;;;;;20.50;16.67;;;;;;;8.97;76.65;99092.28;2147291;82;20965;-81
2021/10/15 02:32:35;;;;;;;23.03;17.23;;;;;;;8.95;76.89;99089.64;2147227;83;20962;-81
2021/10/15 02:35:36;;;;;;;22.17;16.67;;;;;;;8.94;76.93;99091.78;2147277;83;20926;-82
2021/10/15 02:38:36;;;;;;;28.53;16.70;;;;;;;8.94;76.95;99091.78;2147139;83;21314;-81
2021/10/15 02:41:40;;;;;;;20.77;16.03;;;;;;;8.91;77.00;99097.80;2147162;83;20980;-80
2021/10/15 02:44:40;;;;;;;23.03;17.30;;;;;;;8.90;77.61;99099.95;2147360;83;21382;-81
2021/10/15 02:47:41;;;;;;;22.07;17.73;;;;;;;8.87;77.28;99097.70;2147122;82;20986;-81
2021/10/15 02:50:41;;;;;;;25.33;17.13;;;;;;;8.85;77.59;99101.99;2147239;83;21317;-81
2021/10/15 02:53:42;;;;;;;23.17;17.17;;;;;;;8.83;77.77;99104.98;2147198;82;20926;-82
2021/10/15 02:56:43;;;;;;;21.07;16.67;;;;;;;8.80;77.88;99103.19;2147258;82;20950;-82
2021/10/15 02:59:43;;;;;;;23.80;18.57;;;;;;;8.79;78.82;99109.66;2147199;83;20942;-81
2021/10/15 03:02:44;;;;;;;24.03;18.03;;;;;;;8.78;78.19;99110.09;2147152;82;20922;-82
2021/10/15 03:05:44;;;;;;;18.97;16.97;;;;;;;8.77;78.38;99101.81;2147271;82;21013;-82
2021/10/15 03:08:45;;;;;;;25.50;18.27;;;;;;;8.78;78.75;99106.18;2147335;82;21161;-81
2021/10/15 03:11:45;;;;;;;20.63;15.93;;;;;;;8.78;78.68;99093.17;2147271;83;20998;-81
2021/10/15 03:14:46;;;;;;;22.53;18.00;;;;;;;8.80;78.75;99104.91;2147177;82;20922;-81
2021/10/15 03:17:46;;;;;;;19.03;16.40;;;;;;;8.79;78.69;99091.45;2147167;82;20926;-81
2021/10/15 03:20:47;;;;;;;19.73;16.30;;;;;;;8.81;78.68;99094.96;2151524;82;20965;-81
2021/10/15 03:23:47;;;;;;;24.13;18.27;;;;;;;8.81;78.86;99091.94;2086872;85;20985;-81
2021/10/15 03:26:48;;;;;;;27.73;19.23;;;;;;;8.78;78.72;99094.47;2169681;82;21356;-81
2021/10/15 03:29:48;;;;;;;22.87;17.00;;;;;;;8.78;78.62;99096.19;2169817;82;21326;-81
2021/10/15 03:32:49;;;;;;;23.63;17.93;;;;;;;8.81;78.67;99081.95;2169838;82;21114;-81
2021/10/15 03:35:52;;;;;;;20.90;17.13;;;;;;;8.82;78.67;99083.28;2169994;82;21094;-81
2021/10/15 03:38:53;;;;;;;24.43;19.67;;;;;;;8.82;78.92;99087.19;2169708;82;20981;-81
2021/10/15 03:41:54;;;;;;;29.23;21.33;;;;;;;8.80;78.92;99083.67;2169987;82;21412;-82
2021/10/15 03:44:54;;;;;;;24.07;19.83;;;;;;;8.80;78.71;99087.58;2169571;82;20993;-80
2021/10/15 03:47:55;;;;;;;26.30;20.27;;;;;;;8.80;78.93;99090.17;2169865;82;20961;-80
2021/10/15 03:50:55;;;;;;;25.60;22.10;;;;;;;8.80;79.04;99082.37;2168738;82;20993;-80
2021/10/15 03:53:55;;;;;;;24.20;21.10;;;;;;;8.80;78.89;99082.79;2169210;82;20949;-80
2021/10/15 03:56:56;;;;;;;23.27;20.37;;;;;;;8.81;79.00;99088.45;2169489;82;20945;-78
2021/10/15 03:59:56;;;;;;;21.50;18.63;;;;;;;8.83;79.12;99093.27;2169332;82;21311;-80
2021/10/15 04:02:57;;;;;;;31.47;19.37;;;;;;;8.83;79.08;99094.15;2169344;82;20918;-80
2021/10/15 04:05:58;;;;;;;24.80;19.93;;;;;;;8.85;79.09;99100.27;2168624;82;20941;-80
2021/10/15 04:08:58;;;;;;;24.27;18.40;;;;;;;8.86;78.89;99102.45;2085445;85;20941;-80
2021/10/15 04:11:59;;;;;;;21.77;18.57;;;;;;;8.86;79.08;99095.52;2168281;82;21005;-79
2021/10/15 04:15:00;;;;;;;27.83;20.43;;;;;;;8.88;79.12;99091.23;2168308;82;21087;-80
2021/10/15 04:18:00;;;;;;;21.87;18.50;;;;;;;8.89;78.85;99094.29;2168497;82;20930;-80
2021/10/15 04:21:01;;;;;;;27.67;20.20;;;;;;;8.91;79.18;99089.99;2171441;82;21507;-80
2021/10/15 04:24:01;;;;;;;22.87;20.03;;;;;;;8.89;78.87;99090.38;2180496;82;21347;-80
2021/10/15 04:27:02;;;;;;;22.43;18.67;;;;;;;8.88;78.98;99088.63;2181623;82;20949;-80
2021/10/15 04:30:02;;;;;;;23.73;18.73;;;;;;;8.89;79.07;99087.78;2181270;82;20940;-80
2021/10/15 04:33:03;;;;;;;22.67;18.33;;;;;;;8.90;78.96;99076.95;2181451;82;20953;-80
2021/10/15 04:36:03;;;;;;;25.53;18.53;;;;;;;8.91;78.96;99080.00;2181898;82;20977;-80
2021/10/15 04:39:04;;;;;;;31.13;18.97;;;;;;;8.90;78.99;99076.52;2181870;82;20984;-80
2021/10/15 04:42:04;;;;;;;19.70;17.50;;;;;;;8.91;79.14;99076.09;2181338;82;20988;-79
2021/10/15 04:45:05;;;;;;;23.83;18.20;;;;;;;8.90;79.16;99070.02;2180833;82;20964;-79
2021/10/15 04:48:05;;;;;;;21.27;17.53;;;;;;;8.90;79.04;99064.80;2181471;82;20949;-79
2021/10/15 04:51:06;;;;;;;22.23;18.00;;;;;;;8.89;79.30;99064.77;2181871;82;20980;-79
2021/10/15 04:54:07;;;;;;;20.83;17.60;;;;;;;8.94;79.21;99056.64;2181622;82;20961;-80
2021/10/15 04:57:07;;;;;;;24.00;19.07;;;;;;;9.26;79.47;99061.22;2100222;85;20933;-79
2021/10/15 05:00:08;;;;;;;36.97;25.30;;;;;;;9.23;78.66;99054.22;2129234;84;21151;-77
2021/10/15 05:03:08;;;;;;;23.50;19.23;;;;;;;9.22;78.65;99062.88;2100348;85;20940;-81
2021/10/15 05:06:09;;;;;;;20.47;18.30;;;;;;;9.89;79.40;99060.30;2130643;84;21005;-81
2021/10/15 05:12:15;;;;;;;23.47;18.30;;;;;;;9.65;77.31;99060.27;2112646;84;21043;-80
2021/10/15 05:15:15;;;;;;;22.63;18.13;;;;;;;9.52;77.42;99061.31;2100961;85;20956;-82
2021/10/15 05:18:16;;;;;;;24.77;18.73;;;;;;;9.48;77.52;99061.22;2130560;84;20942;-81
2021/10/15 05:21:16;;;;;;;25.17;17.37;;;;;;;9.42;77.82;99058.07;2089930;85;21046;-81
2021/10/15 05:24:17;;;;;;;18.43;16.43;;;;;;;9.41;77.83;99056.31;2147245;82;21013;-79
2021/10/15 05:27:17;;;;;;;27.90;18.13;;;;;;;9.40;77.88;99061.50;2147184;83;20934;-81
2021/10/15 05:30:18;;;;;;;21.73;16.20;;;;;;;9.35;77.97;99056.62;2146931;83;20977;-81
2021/10/15 05:33:18;;;;;;;21.57;18.20;;;;;;;9.32;78.33;99057.44;2146732;82;20915;-81
2021/10/15 05:36:19;;;;;;;22.47;18.03;;;;;;;9.26;78.05;99056.89;2146529;82;21290;-80
2021/10/15 05:39:19;;;;;;;51.97;33.40;;;;;;;9.25;78.26;99049.92;2146549;83;21001;-81
2021/10/15 05:42:20;;;;;;;28.93;20.27;;;;;;;9.26;78.44;99047.77;2146928;83;21014;-81
2021/10/15 05:45:20;;;;;;;23.33;19.13;;;;;;;9.28;78.27;99046.50;2146176;83;21017;-80
2021/10/15 05:48:21;;;;;;;37.67;21.27;;;;;;;9.33;78.31;99047.89;2145814;83;21056;-81
2021/10/15 05:51:23;;;;;;;24.47;20.13;;;;;;;9.36;78.20;99055.34;2145572;83;20969;-81
2021/10/15 05:54:28;;;;;;;21.77;17.20;;;;;;;9.36;78.16;99051.44;2145779;83;20950;-81
2021/10/15 06:00:34;;;;;;;25.17;17.17;;;;;;;9.37;78.34;99046.69;2127159;83;20946;-81
2021/10/15 06:03:36;;;;;;;22.00;17.67;;;;;;;9.40;78.43;99044.14;2145991;83;20943;-82
2021/10/15 06:16:30;;;;;;;23.43;17.30;;;;;;;9.56;78.12;99042.73;2146267;83;20997;-81
2021/10/15 06:19:34;;;;;;;42.60;32.90;;;;;;;9.63;78.01;99044.61;2054642;87;20994;-80
2021/10/15 06:22:33;;;;;;;25.10;19.00;;;;;;;9.70;77.87;99044.30;2166335;82;21382;-80
2021/10/15 06:25:34;;;;;;;27.93;20.30;;;;;;;9.76;77.84;99043.11;2181266;82;20969;-81
2021/10/15 06:28:34;;;;;;;23.37;18.37;;;;;;;9.81;77.72;99042.77;2100811;85;20984;-78
2021/10/15 06:31:35;;;;;;;31.80;18.13;;;;;;;9.84;77.60;99044.12;2130456;84;21353;-81
2021/10/15 06:34:36;;;;;;;20.07;17.30;;;;;;;9.88;77.64;99040.72;2100161;85;20969;-81
2021/10/15 06:37:36;;;;;;;24.87;20.50;;;;;;;9.91;77.44;99044.68;2129873;84;20950;-80
2021/10/15 06:40:37;;;;;;;22.83;18.10;;;;;;;9.94;77.33;99038.22;2100353;85;20964;-81
2021/10/15 06:43:38;;;;;;;24.00;19.20;;;;;;;9.98;77.21;99046.55;2129713;83;21053;-81
2021/10/15 06:46:38;;;;;;;24.77;19.70;;;;;;;10.05;77.15;99038.40;2101066;85;21358;-81
2021/10/15 06:49:39;;;;;;;22.13;17.00;;;;;;;10.10;77.00;99038.92;2130047;84;21013;-80
2021/10/15 06:52:49;;;;;;;28.70;17.83;;;;;;;10.13;76.85;99037.67;2100685;85;21001;-81
2021/10/15 06:55:49;;;;;;;24.10;16.40;;;;;;;10.17;76.74;99034.27;2129716;84;20997;-81
2021/10/15 06:58:50;;;;;;;52.83;38.70;;;;;;;10.25;76.64;99038.33;2100515;85;20961;-80
2021/10/15 07:01:50;;;;;;;20.03;16.90;;;;;;;10.35;76.45;99038.05;2129629;84;21024;-81
2021/10/15 07:04:51;;;;;;;18.20;15.60;;;;;;;10.41;76.13;99048.63;2100147;85;20997;-82
2021/10/15 07:07:51;;;;;;;21.00;16.23;;;;;;;10.45;76.18;99043.90;2129772;84;20949;-81
2021/10/15 07:10:52;;;;;;;19.73;15.10;;;;;;;10.52;76.02;99042.71;2100502;85;20964;-81
2021/10/15 07:13:53;;;;;;;17.80;15.17;;;;;;;10.60;75.69;99040.22;2130205;84;21346;-79
2021/10/15 07:16:53;;;;;;;26.67;15.47;;;;;;;10.68;75.55;99034.67;2101842;85;20946;-78
2021/10/15 07:19:54;;;;;;;27.67;16.13;;;;;;;10.78;75.34;99036.56;2131218;84;20981;-79
2021/10/15 07:22:55;;;;;;;20.67;14.83;;;;;;;10.93;75.11;99040.23;2100151;85;21111;-79
2021/10/15 07:25:56;;;;;;;20.57;15.23;;;;;;;11.10;74.68;99042.64;2130303;84;21698;-79
2021/10/15 07:28:56;;;;;;;16.63;12.50;;;;;;;11.22;74.39;99040.61;2100749;85;20964;-79
2021/10/15 07:31:57;;;;;;;17.30;14.53;;;;;;;11.31;73.34;99047.29;2130435;84;20914;-80
2021/10/15 07:34:57;;;;;;;17.43;13.80;;;;;;;11.27;73.71;99035.92;2100581;85;20960;-79
2021/10/15 07:37:58;;;;;;;17.23;14.40;;;;;;;11.30;73.56;99041.19;2129772;84;20942;-79
2021/10/15 07:40:58;;;;;;;14.63;12.57;;;;;;;11.35;73.56;99036.89;2100701;85;20934;-79
2021/10/15 07:43:59;;;;;;;16.33;13.47;;;;;;;11.41;73.32;99046.11;2129402;84;20995;-79
2021/10/15 07:47:00;;;;;;;19.17;14.13;;;;;;;11.39;72.84;99039.98;2099445;85;20989;-78
2021/10/15 07:50:00;;;;;;;16.30;13.23;;;;;;;11.42;72.99;99036.53;2129411;84;21321;-79
2021/10/15 07:53:01;;;;;;;17.80;14.80;;;;;;;11.52;72.75;99041.44;2099385;85;20997;-79
2021/10/15 07:56:01;;;;;;;16.63;14.07;;;;;;;11.55;72.18;99043.66;2129112;84;21360;-80
2021/10/15 07:59:02;;;;;;;16.57;13.47;;;;;;;11.61;71.93;99042.84;2099636;85;20957;-80
2021/10/15 08:02:02;;;;;;;13.25;11.95;;;;;;;11.71;71.64;99033.80;2129485;84;20968;-79
2021/10/15 08:05:03;;;;;;;15.47;12.27;;;;;;;11.81;71.10;99033.50;2099646;85;20981;-80
2021/10/15 08:08:04;;;;;;;16.23;13.72;;;;;;;11.93;70.80;99032.30;2129927;84;20966;-80
2021/10/15 08:11:04;;;;;;;17.17;12.47;;;;;;;12.05;71.44;99035.03;2100060;85;20993;-79
2021/10/15 08:14:05;;;;;;;15.25;11.65;;;;;;;12.17;71.19;99027.75;2129314;84;21044;-80
2021/10/15 08:17:06;;;;;;;15.38;11.48;;;;;;;12.28;70.55;99027.41;2100468;85;20953;-80
2021/10/15 08:20:07;;;;;;;18.65;10.85;;;;;;;12.30;69.85;99032.22;2131444;84;20978;-80
2021/10/15 08:23:07;;;;;;;15.05;12.68;;;;;;;12.36;69.67;99032.70;2073990;85;20997;-80
2021/10/15 08:26:08;;;;;;;16.93;13.40;;;;;;;12.43;69.17;99035.38;2146738;83;20982;-81
2021/10/15 08:29:08;;;;;;;13.00;11.70;;;;;;;12.49;69.37;99031.05;2146950;83;20969;-78
2021/10/15 08:32:09;;;;;;;11.80;10.60;;;;;;;12.53;69.07;99031.52;2147174;83;20926;-79
2021/10/15 08:35:10;;;;;;;39.58;30.90;;;;;;;12.57;69.23;99031.55;2148004;83;20919;-79
2021/10/15 08:38:10;;;;;;;14.05;12.45;;;;;;;12.63;68.75;99028.09;2146759;83;20938;-78
2021/10/15 08:41:11;;;;;;;12.33;10.65;;;;;;;12.65;69.11;99031.16;2146639;82;21346;-81
2021/10/15 08:44:11;;;;;;;23.10;11.53;;;;;;;12.74;68.53;99022.48;2146735;82;20955;-79
2021/10/15 08:47:12;;;;;;;12.80;11.08;;;;;;;12.76;68.18;99021.62;2146345;83;20978;-78
2021/10/15 08:50:12;;;;;;;14.33;10.05;;;;;;;12.85;67.64;99029.97;2146086;82;20969;-79
2021/10/15 08:53:13;;;;;;;17.12;9.58;;;;;;;12.85;67.47;99021.23;2147315;82;20918;-80
2021/10/15 08:56:15;;;;;;;11.95;9.75;;;;;;;12.79;67.30;99022.52;2146700;83;20949;-79
2021/10/15 08:59:20;;;;;;;11.57;9.08;;;;;;;12.65;67.59;99024.61;2146698;83;21009;-79
2021/10/15 09:02:18;;;;;;;14.10;10.48;;;;;;;12.65;67.57;99017.19;2146358;83;21002;-80
2021/10/15 09:05:19;;;;;;;13.50;9.93;;;;;;;12.72;68.02;99019.86;2146694;83;20973;-79
2021/10/15 09:08:19;;;;;;;12.00;10.18;;;;;;;12.77;67.89;99021.20;2146561;82;21306;-79
2021/10/15 09:11:20;;;;;;;15.50;10.40;;;;;;;12.78;67.87;99018.14;2146451;82;20970;-78
2021/10/15 09:14:20;;;;;;;10.88;9.13;;;;;;;12.81;67.67;99019.03;2146058;83;21065;-78
2021/10/15 09:17:33;;;;;;;15.88;9.40;;;;;;;12.87;67.19;99022.12;2147595;83;20906;-79
2021/10/15 09:20:23;;;;;;;11.20;9.65;;;;;;;12.96;66.90;99019.11;2145704;83;20986;-79
2021/10/15 09:23:23;;;;;;;11.22;9.68;;;;;;;13.18;66.63;99014.91;2150638;82;20982;-79
2021/10/15 09:26:25;;;;;;;11.90;9.80;;;;;;;13.31;66.27;99004.91;2151951;83;21005;-79
2021/10/15 09:29:25;;;;;;;48.90;16.48;;;;;;;13.27;65.54;99003.59;2059072;87;21705;-76
2021/10/15 09:32:26;;;;;;;18.40;13.05;;;;;;;13.33;66.09;99007.11;2152002;83;20939;-80
2021/10/15 09:35:26;;;;;;;16.85;9.90;;;;;;;13.41;65.55;98994.02;2152425;83;20942;-81
2021/10/15 09:38:27;;;;;;;10.32;8.93;;;;;;;13.54;65.79;98994.92;2152579;83;20977;-80
2021/10/15 09:41:27;;;;;;;17.42;9.30;;;;;;;13.70;65.40;98990.15;2151990;83;20944;-80
2021/10/15 09:44:28;;;;;;;10.38;9.35;;;;;;;13.70;65.07;98989.71;2151764;83;21009;-81
2021/10/15 09:47:29;;;;;;;11.73;8.50;;;;;;;13.70;64.49;98990.15;2152663;83;21018;-81
2021/10/15 09:50:30;;;;;;;9.93;8.10;;;;;;;13.69;64.04;98987.09;2152828;83;20986;-81
2021/10/15 09:53:30;;;;;;;22.42;10.50;;;;;;;13.76;64.29;98984.91;2152186;83;20945;-80
2021/10/15 09:56:31;;;;;;;16.95;9.40;;;;;;;13.86;64.04;98983.17;2151856;83;20938;-81
2021/10/15 09:59:31;;;;;;;12.90;9.08;;;;;;;14.07;63.74;98986.28;2152252;83;20926;-78
2021/10/15 10:02:32;;;;;;;9.73;8.50;;;;;;;14.25;63.58;98989.77;2151607;83;20948;-78
2021/10/15 10:05:32;;;;;;;12.47;9.20;;;;;;;14.26;62.01;98979.70;2059026;86;20996;-81
2021/10/15 10:08:33;;;;;;;14.78;10.00;;;;;;;14.27;62.66;98984.08;2151408;83;20985;-82
2021/10/15 10:14:36;;;;;;;14.40;9.95;;;;;;;14.41;62.52;98977.94;2133168;83;21037;-80
2021/10/15 10:17:38;;;;;;;63.08;15.68;;;;;;;14.43;62.33;98975.78;2151331;83;21314;-82
2021/10/15 10:20:39;;;;;;;11.08;9.80;;;;;;;14.54;62.35;98977.95;2058571;87;21207;-81
2021/10/15 10:23:39;;;;;;;25.48;11.48;;;;;;;14.63;61.70;98973.11;2151805;82;20962;-77
2021/10/15 10:26:40;;;;;;;11.65;9.38;;;;;;;14.69;61.54;98966.97;2151689;83;21401;-80
2021/10/15 10:29:41;;;;;;;17.27;12.65;;;;;;;14.72;61.42;98969.15;2151395;83;21002;-81
2021/10/15 10:32:41;;;;;;;11.63;9.40;;;;;;;14.91;60.83;98960.80;2152053;83;20981;-81
2021/10/15 10:35:43;;;;;;;80.53;12.60;;;;;;;14.94;60.59;98956.84;2152220;83;20946;-80
2021/10/15 10:38:43;;;;;;;12.55;8.20;;;;;;;14.93;60.85;98956.41;2059235;87;21009;-81
2021/10/15 10:41:44;;;;;;;9.58;8.33;;;;;;;14.91;59.66;98950.28;2152436;83;20990;-82
2021/10/15 10:44:44;;;;;;;10.13;8.85;;;;;;;14.85;59.99;98947.68;2151903;83;20998;-81
2021/10/15 10:47:45;;;;;;;16.55;9.45;;;;;;;14.86;59.98;98940.23;2151505;83;20970;-81
2021/10/15 10:50:45;;;;;;;12.15;8.68;;;;;;;14.78;59.75;98942.02;2151831;83;20927;-80
2021/10/15 10:53:45;;;;;;;11.18;8.68;;;;;;;14.73;60.04;98942.44;2151931;83;21369;-79
2021/10/15 10:56:52;;;;;;;9.68;8.23;;;;;;;14.71;60.07;98931.93;2152051;83;20930;-81
2021/10/15 10:59:53;;;;;;;19.62;9.88;;;;;;;14.81;59.45;98928.42;2151564;83;20907;-79
2021/10/15 11:02:53;;;;;;;12.07;8.50;;;;;;;14.81;59.94;98925.80;2152275;83;20938;-81
2021/10/15 11:05:54;;;;;;;20.32;9.28;;;;;;;14.94;60.43;98923.98;2151970;83;20973;-80
2021/10/15 11:08:54;;;;;;;12.25;7.90;;;;;;;15.01;60.22;98920.89;2151494;83;20970;-81
2021/10/15 11:11:55;;;;;;;14.68;8.20;;;;;;;15.13;59.59;98918.20;2059623;87;20966;-82
2021/10/15 11:14:56;;;;;;;8.75;7.87;;;;;;;15.15;59.98;98916.00;2152248;82;20998;-80
2021/10/15 11:17:56;;;;;;;10.93;8.73;;;;;;;15.14;59.73;98914.25;2059094;86;20966;-81
2021/10/15 11:20:57;;;;;;;11.45;9.75;;;;;;;15.24;59.29;98915.07;2151502;82;20910;-80
2021/10/15 11:23:57;;;;;;;19.12;9.88;;;;;;;15.32;58.22;98901.88;2085791;85;21031;-79
2021/10/15 11:26:58;;;;;;;10.10;8.28;;;;;;;15.23;58.58;98907.62;2130052;84;20910;-80
2021/10/15 11:29:59;;;;;;;153.95;18.10;;;;;;;15.15;58.45;98902.85;2100668;85;21615;-80
2021/10/15 11:33:00;;;;;;;14.63;8.18;;;;;;;15.06;58.63;98893.70;2131009;84;20961;-80
2021/10/15 11:36:00;;;;;;;10.82;8.53;;;;;;;15.07;58.65;98894.58;2100429;85;20968;-80
2021/10/15 11:39:01;;;;;;;10.72;8.25;;;;;;;14.96;58.95;98902.52;2130500;84;20937;-80
2021/10/15 11:42:01;;;;;;;15.38;9.05;;;;;;;14.90;58.66;98901.23;2100850;85;21349;-78
2021/10/15 11:45:02;;;;;;;12.07;9.33;;;;;;;14.90;58.56;98904.73;2129748;84;21420;-81
2021/10/15 11:48:02;;;;;;;9.15;8.25;;;;;;;14.91;58.72;98895.97;2100851;85;20945;-81
2021/10/15 11:51:03;;;;;;;8.98;8.10;;;;;;;14.96;58.51;98898.13;2130522;84;20997;-79
2021/10/15 11:54:04;;;;;;;13.10;8.08;;;;;;;15.05;58.77;98891.95;2101473;85;21001;-81
2021/10/15 11:57:04;;;;;;;10.78;8.05;;;;;;;15.19;58.61;98888.80;2131157;84;20981;-80
2021/10/15 12:00:05;;;;;;;8.78;7.87;;;;;;;15.37;58.16;98881.23;2101088;85;21326;-81
2021/10/15 12:03:05;;;;;;;12.37;7.87;;;;;;;15.50;57.42;98876.77;2130152;84;20985;-81
2021/10/15 12:06:06;;;;;;;8.58;7.60;;;;;;;15.53;57.03;98880.24;2101603;85;20973;-80
2021/10/15 12:09:06;;;;;;;8.98;7.90;;;;;;;15.62;57.31;98869.28;2130910;84;20993;-80
2021/10/15 12:12:07;;;;;;;10.28;7.45;;;;;;;15.48;56.11;98857.05;2101178;85;20956;-81
2021/10/15 12:15:07;;;;;;;10.45;8.10;;;;;;;15.48;56.11;98857.05;2129375;84;20992;-79
2021/10/15 12:18:08;;;;;;;10.88;8.40;;;;;;;15.34;56.58;98856.27;2100110;85;20980;-79
2021/10/15 12:21:08;;;;;;;9.03;7.85;;;;;;;15.27;57.38;98848.00;2128873;84;21349;-80
2021/10/15 12:24:09;;;;;;;14.18;8.48;;;;;;;15.34;56.89;98845.75;2070464;85;21041;-79
2021/10/15 12:27:10;;;;;;;11.65;9.88;;;;;;;15.26;56.68;98839.23;2146054;82;20938;-79
2021/10/15 12:30:10;;;;;;;11.50;7.58;;;;;;;15.03;57.46;98831.94;2053483;85;20950;-80
2021/10/15 12:33:16;;;;;;;20.90;8.88;;;;;;;14.92;57.56;98842.96;2146349;82;20923;-79
2021/10/15 12:36:14;;;;;;;17.30;8.40;;;;;;;14.85;57.45;98832.92;2145849;83;21049;-80
2021/10/15 12:39:17;;;;;;;8.98;7.47;;;;;;;14.79;57.55;98839.97;2128244;83;20937;-80
2021/10/15 12:42:26;;;;;;;8.20;6.97;;;;;;;14.63;57.08;98845.27;2147262;83;20997;-79
2021/10/15 12:45:27;;;;;;;8.68;7.17;;;;;;;14.61;57.22;98830.39;2146720;82;20986;-81
2021/10/15 12:48:28;;;;;;;8.55;7.62;;;;;;;14.81;56.78;98818.05;2145827;83;20953;-80
2021/10/15 12:51:29;;;;;;;8.08;7.28;;;;;;;14.70;56.86;98825.53;2053593;87;21034;-80
2021/10/15 12:54:30;;;;;;;9.83;7.05;;;;;;;14.66;57.38;98825.98;2146705;82;20990;-79
2021/10/15 12:57:30;;;;;;;9.85;8.18;;;;;;;14.43;58.14;98826.09;2146478;82;20918;-79
2021/10/15 13:00:31;;;;;;;11.30;8.33;;;;;;;14.43;58.14;98826.09;2146239;83;20946;-78
2021/10/15 13:03:31;;;;;;;8.53;7.65;;;;;;;14.29;58.71;98827.86;2146438;82;20981;-79
2021/10/15 13:06:33;;;;;;;11.48;7.85;;;;;;;14.23;59.11;98818.25;2146768;83;20969;-80
2021/10/15 13:09:33;;;;;;;9.43;7.78;;;;;;;14.11;59.39;98816.97;2053973;87;20965;-79
2021/10/15 13:12:34;;;;;;;12.88;8.88;;;;;;;13.93;59.91;98819.20;2146587;82;20985;-79
2021/10/15 13:15:34;;;;;;;8.18;7.12;;;;;;;13.76;60.32;98823.57;2146755;82;20941;-78
2021/10/15 13:18:35;;;;;;;11.00;7.62;;;;;;;13.65;60.71;98820.95;2147004;83;20945;-79
2021/10/15 13:21:36;;;;;;;10.73;8.50;;;;;;;13.59;61.01;98817.47;2146666;82;20941;-80
2021/10/15 13:24:37;;;;;;;11.48;8.68;;;;;;;13.56;61.35;98821.41;2082810;85;21001;-79
2021/10/15 13:27:38;;;;;;;9.75;7.87;;;;;;;13.52;61.60;98821.84;2095175;85;21017;-79
2021/10/15 13:30:39;;;;;;;11.38;8.03;;;;;;;13.51;61.62;98816.60;2095239;85;21029;-78
2021/10/15 13:33:40;;;;;;;9.38;8.03;;;;;;;13.51;61.81;98817.47;2095587;85;21001;-80
2021/10/15 13:36:43;;;;;;;30.52;9.65;;;;;;;13.55;61.90;98808.73;2095609;85;20985;-78
2021/10/15 13:39:47;;;;;;;12.82;7.87;;;;;;;13.67;61.82;98807.84;2175287;82;21004;-78
2021/10/15 13:43:05;;;;;;;9.85;7.00;;;;;;;13.66;61.32;98802.16;2174981;82;21000;-78
2021/10/15 13:52:41;;;;;;;13.62;7.42;;;;;;;13.24;61.71;98814.41;2175396;82;20948;-77
2021/10/15 13:58:54;;;;;;;8.65;7.55;;;;;;;13.17;62.07;98807.41;2154762;82;21013;-79
2021/10/15 14:01:57;;;;;;;10.28;7.92;;;;;;;13.13;62.23;98808.69;2095085;85;20953;-80
2021/10/15 14:04:57;;;;;;;9.05;7.00;;;;;;;13.13;62.37;98804.76;2174615;82;21229;-80
2021/10/15 14:07:57;;;;;;;9.50;6.53;;;;;;;13.12;62.11;98798.64;2174388;82;20960;-79
2021/10/15 14:10:58;;;;;;;8.05;6.97;;;;;;;13.12;61.53;98799.95;2174281;82;20946;-78
2021/10/15 14:13:58;;;;;;;12.45;7.08;;;;;;;13.02;61.52;98796.89;2174183;82;21055;-80
2021/10/15 14:16:59;;;;;;;67.85;12.10;;;;;;;12.95;61.92;98801.20;2174945;82;21305;-78
2021/10/15 14:19:59;;;;;;;21.45;8.78;;;;;;;12.91;62.35;98798.14;2174780;82;21357;-78
2021/10/15 14:23:00;;;;;;;12.28;8.10;;;;;;;12.92;62.26;98805.57;2176102;82;20941;-80
2021/10/15 14:26:00;;;;;;;12.90;8.53;;;;;;;12.85;62.29;98791.59;2182145;82;20972;-78
2021/10/15 14:29:02;;;;;;;11.18;8.18;;;;;;;12.79;62.48;98790.27;2101516;85;20969;-81